Time;durP1;ratioP1;P1;durP2;ratioP2;P2;SDS_P1;SDS_P2;PMS_P1;PMS_P2;Temp;Humidity;BMP_temperature;BMP_pressure;BME280_temperature;BME280_humidity;BME280_pressure;Samples;Min_cycle;Max_cycle;Signal;HPM_P1;HPM_P2
2023/09/28 00:01:31;;;;;;;19.25;10.30;;;;;;;18.88;61.38;100643.09;5050515;27;97843;-77
2023/09/28 00:03:56;;;;;;;18.02;9.93;;;;;;;18.92;61.20;100624.19;5050774;27;96744;-77
2023/09/28 00:06:22;;;;;;;29.23;11.07;;;;;;;18.83;61.82;100629.25;5033787;27;96889;-79
2023/09/28 00:08:47;;;;;;;20.65;12.75;;;;;;;18.80;61.95;100632.94;5033201;27;101948;-77
2023/09/28 00:11:13;;;;;;;16.70;12.85;;;;;;;18.84;61.34;100626.47;5032885;27;101391;-78
2023/09/28 00:13:38;;;;;;;21.63;11.43;;;;;;;18.68;61.99;100612.44;5030097;28;97197;-77
2023/09/28 00:16:04;;;;;;;16.55;13.10;;;;;;;18.76;61.90;100623.44;5031844;27;97038;-77
2023/09/28 00:18:29;;;;;;;18.90;11.60;;;;;;;18.75;61.83;100622.59;5050519;27;97844;-77
2023/09/28 00:20:55;;;;;;;18.75;12.70;;;;;;;18.68;62.20;100623.06;5032938;27;101098;-79
2023/09/28 00:23:20;;;;;;;20.08;11.35;;;;;;;18.74;62.00;100633.34;5049218;27;97210;-78
2023/09/28 00:25:48;;;;;;;15.80;11.57;;;;;;;18.74;61.96;100620.06;5053206;27;96751;-78
2023/09/28 00:28:14;;;;;;;21.02;11.48;;;;;;;18.68;62.01;100621.25;5053001;27;98068;-77
2023/09/28 00:30:40;;;;;;;25.50;12.68;;;;;;;18.57;62.26;100610.44;5053769;27;97857;-77
2023/09/28 00:33:05;;;;;;;15.02;11.57;;;;;;;18.51;62.43;100603.69;5036109;27;97564;-77
2023/09/28 00:35:31;;;;;;;16.75;12.13;;;;;;;18.65;62.47;100634.75;5016846;27;96910;-78
2023/09/28 00:37:56;;;;;;;15.80;10.38;;;;;;;18.62;62.36;100612.81;5025398;27;101363;-77
2023/09/28 00:40:28;;;;;;;16.98;11.82;;;;;;;18.66;62.22;100611.66;5054190;27;98315;-77
2023/09/28 00:42:55;;;;;;;13.95;11.35;;;;;;;18.67;62.07;100619.53;5053231;27;96706;-77
2023/09/28 00:45:23;;;;;;;15.98;10.02;;;;;;;18.66;62.40;100622.31;5034455;27;97163;-77
2023/09/28 00:47:50;;;;;;;16.65;9.63;;;;;;;18.64;62.47;100622.38;5052574;27;98082;-78
2023/09/28 00:50:17;;;;;;;16.67;10.00;;;;;;;18.42;63.06;100625.53;5036237;27;97190;-77
2023/09/28 00:52:52;;;;;;;20.75;10.27;;;;;;;18.28;63.56;100609.59;5032626;27;97285;-77
2023/09/28 00:55:19;;;;;;;16.65;9.95;;;;;;;18.28;63.83;100625.53;5034701;27;96753;-77
2023/09/28 00:57:46;;;;;;;17.25;10.93;;;;;;;17.95;64.49;100604.50;5053079;27;98043;-77
2023/09/28 01:00:20;;;;;;;17.33;10.32;;;;;;;18.13;64.51;100623.81;5035914;27;101849;-77
2023/09/28 01:02:51;;;;;;;17.13;10.73;;;;;;;18.26;63.94;100614.13;5033475;27;96910;-79
2023/09/28 01:05:30;;;;;;;14.88;10.70;;;;;;;18.15;64.34;100613.94;5046350;27;96997;-77
2023/09/28 01:08:14;;;;;;;22.08;12.02;;;;;;;17.96;64.46;100577.88;5052679;27;98622;-77
2023/09/28 01:10:40;;;;;;;26.10;10.75;;;;;;;18.13;64.68;100615.84;5026777;28;101343;-77
2023/09/28 01:13:11;;;;;;;14.88;10.40;;;;;;;18.16;64.26;100605.03;5035137;27;96958;-78
2023/09/28 01:15:40;;;;;;;18.27;11.60;;;;;;;18.00;64.71;100594.47;5053684;27;97268;-77
2023/09/28 01:18:10;;;;;;;16.05;9.75;;;;;;;17.93;64.46;100572.75;5035650;27;97572;-77
2023/09/28 01:20:37;;;;;;;17.42;10.52;;;;;;;18.12;64.31;100596.38;5032599;28;101476;-78
2023/09/28 01:23:06;;;;;;;14.27;10.27;;;;;;;18.19;64.18;100602.19;5032720;27;97011;-79
2023/09/28 01:25:33;;;;;;;15.50;10.98;;;;;;;17.98;64.01;100578.66;5044373;27;97047;-77
2023/09/28 01:28:00;;;;;;;18.48;10.57;;;;;;;18.17;64.04;100612.91;5051697;27;98458;-77
2023/09/28 01:30:26;;;;;;;23.40;12.68;;;;;;;18.17;64.04;100604.06;5042770;27;98072;-77
2023/09/28 01:32:52;;;;;;;16.48;11.77;;;;;;;18.13;64.05;100597.25;5017690;27;97291;-78
2023/09/28 01:35:18;;;;;;;19.88;11.80;;;;;;;18.08;64.42;100601.03;5035006;27;96823;-77
2023/09/28 01:38:13;;;;;;;20.20;13.30;;;;;;;17.92;64.89;100610.00;5034316;27;98505;-77
2023/09/28 01:40:42;;;;;;;20.38;13.13;;;;;;;18.00;64.55;100600.63;5048821;27;98592;-77
2023/09/28 01:43:10;;;;;;;21.23;14.23;;;;;;;17.98;64.54;100604.34;5016525;27;97363;-77
2023/09/28 01:45:35;;;;;;;19.52;13.65;;;;;;;17.85;64.82;100606.88;5053118;27;96901;-77
2023/09/28 01:48:04;;;;;;;18.05;13.40;;;;;;;17.77;65.11;100598.47;5035101;27;101408;-77
2023/09/28 01:50:31;;;;;;;18.77;13.02;;;;;;;17.69;65.52;100596.28;5035562;27;101050;-77
2023/09/28 01:52:56;;;;;;;20.23;12.88;;;;;;;17.59;65.06;100581.84;5051774;27;96850;-77
2023/09/28 01:55:22;;;;;;;21.58;12.95;;;;;;;17.75;65.14;100601.25;5036351;27;96976;-77
2023/09/28 01:57:48;;;;;;;22.35;15.43;;;;;;;17.75;65.03;100598.59;5035049;27;101430;-77
2023/09/28 02:00:16;;;;;;;22.80;17.50;;;;;;;17.62;65.31;100593.13;5018377;27;100990;-78
2023/09/28 02:02:45;;;;;;;22.40;19.85;;;;;;;17.60;65.41;100583.56;5034320;27;97513;-78
2023/09/28 02:05:14;;;;;;;23.23;19.60;;;;;;;17.36;66.27;100594.66;5052703;27;96838;-77
2023/09/28 02:07:40;;;;;;;24.10;13.13;;;;;;;17.40;66.35;100587.38;5051645;27;98455;-77
2023/09/28 02:10:06;;;;;;;16.77;12.25;;;;;;;17.29;66.43;100572.09;5035417;27;97708;-77
2023/09/28 02:12:32;;;;;;;20.00;13.90;;;;;;;17.46;66.18;100588.84;5032294;27;96812;-77
2023/09/28 02:15:02;;;;;;;18.27;13.13;;;;;;;17.52;65.66;100597.28;5035528;27;97232;-77
2023/09/28 02:17:28;;;;;;;20.77;13.17;;;;;;;17.40;65.84;100585.59;5051534;27;101614;-77
2023/09/28 02:19:54;;;;;;;20.13;13.75;;;;;;;17.32;65.98;100565.75;5014886;28;101343;-77
2023/09/28 02:22:20;;;;;;;23.88;14.07;;;;;;;17.30;66.04;100571.13;5006022;27;97274;-77
2023/09/28 02:24:46;;;;;;;19.67;13.73;;;;;;;17.24;66.75;100586.56;5050926;27;96840;-77
2023/09/28 02:27:13;;;;;;;23.15;13.20;;;;;;;17.27;66.39;100570.47;5030641;27;101228;-77
2023/09/28 02:29:38;;;;;;;21.98;16.67;;;;;;;17.35;66.31;100585.00;5015116;27;101668;-77
2023/09/28 02:32:05;;;;;;;29.05;18.25;;;;;;;17.22;66.16;100570.75;5051457;27;97175;-77
2023/09/28 02:34:34;;;;;;;17.25;12.02;;;;;;;17.20;66.41;100562.84;5018104;27;97094;-77
2023/09/28 02:37:01;;;;;;;17.73;14.23;;;;;;;17.38;66.20;100597.22;5028390;27;101362;-77
2023/09/28 02:39:28;;;;;;;22.25;14.23;;;;;;;17.46;65.74;100595.00;5031123;27;101345;-77
2023/09/28 02:41:55;;;;;;;21.40;15.07;;;;;;;17.43;66.12;100603.13;5033073;27;97075;-77
2023/09/28 02:44:21;;;;;;;20.13;15.40;;;;;;;17.44;65.69;100599.53;5052697;27;96964;-77
2023/09/28 02:46:47;;;;;;;21.52;14.73;;;;;;;17.32;66.08;100573.72;5033681;27;101635;-78
2023/09/28 02:49:13;;;;;;;22.88;17.08;;;;;;;17.27;66.18;100568.66;5050079;27;97923;-78
2023/09/28 02:51:39;;;;;;;20.60;15.20;;;;;;;17.33;65.94;100597.47;5050323;27;97866;-77
2023/09/28 02:54:06;;;;;;;23.00;13.25;;;;;;;17.31;65.98;100595.88;5017379;27;97006;-77
2023/09/28 02:56:32;;;;;;;21.63;12.57;;;;;;;17.17;66.17;100573.66;5033911;27;100964;-77
2023/09/28 02:58:57;;;;;;;16.30;12.68;;;;;;;17.29;66.07;100592.47;5032370;27;101084;-77
2023/09/28 03:01:24;;;;;;;22.85;14.40;;;;;;;17.16;66.42;100598.47;5031047;27;97153;-77
2023/09/28 03:03:50;;;;;;;21.70;13.52;;;;;;;16.98;67.07;100597.69;5031242;27;97975;-77
2023/09/28 03:06:16;;;;;;;19.40;12.93;;;;;;;17.01;67.33;100593.16;5045028;27;98082;-77
2023/09/28 03:08:41;;;;;;;17.77;12.95;;;;;;;16.81;67.77;100578.38;5050896;27;100770;-77
2023/09/28 03:11:07;;;;;;;21.52;13.13;;;;;;;16.74;67.98;100588.44;5034578;27;96903;-78
2023/09/28 03:13:32;;;;;;;18.13;13.27;;;;;;;16.67;67.97;100573.84;5030765;28;97385;-78
2023/09/28 03:16:01;;;;;;;25.85;18.63;;;;;;;16.75;67.95;100593.66;5011637;27;102201;-78
2023/09/28 03:18:27;;;;;;;22.83;16.25;;;;;;;16.74;68.45;100591.09;5030345;28;101260;-78
2023/09/28 03:20:53;;;;;;;23.75;16.67;;;;;;;16.70;68.15;100584.25;5028058;27;97244;-78
2023/09/28 03:23:18;;;;;;;19.75;17.58;;;;;;;16.83;68.00;100590.59;5044785;27;97149;-78
2023/09/28 03:25:45;;;;;;;24.95;20.17;;;;;;;16.58;68.48;100576.97;5044628;27;98031;-78
2023/09/28 03:28:11;;;;;;;22.88;14.20;;;;;;;16.60;68.52;100580.41;5049279;27;98014;-75
2023/09/28 03:30:37;;;;;;;27.95;14.57;;;;;;;16.39;69.04;100566.53;5050038;27;97005;-80
2023/09/28 03:33:02;;;;;;;19.48;12.63;;;;;;;16.57;68.73;100578.75;5031771;27;97378;-77
2023/09/28 03:35:28;;;;;;;22.95;14.40;;;;;;;16.44;69.28;100575.09;5051283;27;97413;-77
2023/09/28 03:37:56;;;;;;;22.35;13.25;;;;;;;16.17;70.26;100578.25;5050694;27;100724;-77
2023/09/28 03:40:22;;;;;;;24.77;13.68;;;;;;;16.20;70.35;100588.72;5030446;27;97641;-77
2023/09/28 03:42:48;;;;;;;25.48;15.13;;;;;;;15.94;70.77;100560.97;5050777;27;97097;-77
2023/09/28 03:45:15;;;;;;;21.33;14.50;;;;;;;16.08;70.77;100576.09;5029740;27;101311;-78
2023/09/28 03:47:42;;;;;;;18.60;13.90;;;;;;;16.17;70.35;100583.56;5033694;27;101027;-77
2023/09/28 03:50:10;;;;;;;23.23;14.80;;;;;;;16.29;69.96;100582.94;5050632;27;97337;-78
2023/09/28 03:52:37;;;;;;;18.95;16.40;;;;;;;16.36;69.47;100582.59;5029544;28;97181;-77
2023/09/28 03:55:04;;;;;;;25.33;17.42;;;;;;;16.28;69.52;100564.44;5027758;27;101106;-77
2023/09/28 03:57:30;;;;;;;26.85;22.00;;;;;;;16.35;69.57;100570.25;5030273;27;101407;-77
2023/09/28 03:59:56;;;;;;;22.15;14.57;;;;;;;16.19;70.47;100579.03;5042725;27;97008;-79
2023/09/28 04:02:26;;;;;;;21.77;14.45;;;;;;;16.13;70.33;100582.00;5050607;27;97173;-77
2023/09/28 04:04:52;;;;;;;21.57;14.27;;;;;;;15.94;71.00;100568.91;5033039;27;101319;-77
2023/09/28 04:07:17;;;;;;;26.92;18.10;;;;;;;16.01;71.12;100580.88;5050630;27;98563;-77
2023/09/28 04:09:43;;;;;;;18.20;14.05;;;;;;;16.05;71.07;100586.84;5016422;27;96725;-77
2023/09/28 04:12:08;;;;;;;25.35;14.73;;;;;;;15.92;71.14;100559.34;5049464;27;96993;-77
2023/09/28 04:14:34;;;;;;;20.63;16.75;;;;;;;16.10;70.53;100582.19;5030536;27;101280;-78
2023/09/28 04:17:00;;;;;;;25.45;14.48;;;;;;;16.18;70.43;100592.38;5050178;27;97314;-77
2023/09/28 04:19:25;;;;;;;29.10;16.30;;;;;;;16.15;70.66;100600.50;5030002;27;96811;-79
2023/09/28 04:21:50;;;;;;;21.98;15.07;;;;;;;16.16;70.30;100587.16;5049441;27;96804;-78
2023/09/28 04:24:17;;;;;;;26.02;15.25;;;;;;;16.07;70.19;100569.94;5031414;27;101691;-78
2023/09/28 04:26:43;;;;;;;23.30;13.85;;;;;;;16.19;70.08;100596.72;5012847;28;101037;-78
2023/09/28 04:29:09;;;;;;;26.13;15.02;;;;;;;16.21;69.68;100589.56;5031114;27;97140;-78
2023/09/28 04:31:34;;;;;;;23.92;16.38;;;;;;;15.90;71.16;100587.66;5030193;27;97527;-77
2023/09/28 04:34:00;;;;;;;27.70;15.18;;;;;;;15.84;70.73;100560.56;5049276;27;97743;-77
2023/09/28 04:36:26;;;;;;;20.45;15.68;;;;;;;15.82;71.34;100582.75;5039950;27;101059;-77
2023/09/28 04:38:51;;;;;;;24.23;15.15;;;;;;;15.74;71.51;100580.53;5050599;27;97084;-77
2023/09/28 04:41:17;;;;;;;23.48;15.60;;;;;;;15.46;72.21;100559.00;5049859;27;96984;-76
2023/09/28 04:43:43;;;;;;;24.05;16.23;;;;;;;15.59;72.44;100590.06;5032909;27;97563;-77
2023/09/28 04:46:09;;;;;;;19.90;15.43;;;;;;;15.54;71.80;100557.69;5046493;27;97201;-78
2023/09/28 04:48:34;;;;;;;24.10;15.38;;;;;;;15.75;71.32;100560.19;5048132;27;96785;-78
2023/09/28 04:51:00;;;;;;;32.30;18.60;;;;;;;15.92;70.78;100586.66;5028079;28;97212;-79
2023/09/28 04:53:26;;;;;;;28.05;18.20;;;;;;;16.02;70.69;100589.66;5045145;27;98094;-78
2023/09/28 04:55:52;;;;;;;28.35;21.10;;;;;;;16.02;70.73;100582.56;5044455;27;97377;-86
2023/09/28 04:58:18;;;;;;;27.83;15.07;;;;;;;16.05;70.38;100585.06;5048823;27;97382;-87
2023/09/28 05:00:44;;;;;;;25.80;16.33;;;;;;;16.12;70.25;100582.13;5030428;28;97050;-87
2023/09/28 05:03:10;;;;;;;27.73;16.13;;;;;;;16.21;70.10;100584.28;5044652;27;97386;-87
2023/09/28 05:05:36;;;;;;;26.10;14.40;;;;;;;16.30;69.75;100594.38;5050504;27;97967;-91
2023/09/28 05:08:02;;;;;;;25.92;14.23;;;;;;;16.29;69.22;100584.72;5031049;27;97417;-77
2023/09/28 05:10:28;;;;;;;24.35;15.85;;;;;;;16.28;69.46;100594.44;5033224;27;97938;-80
2023/09/28 05:12:53;;;;;;;19.95;14.10;;;;;;;16.22;69.66;100586.81;5015790;27;101274;-80
2023/09/28 05:15:20;;;;;;;28.92;15.27;;;;;;;16.26;69.58;100582.22;5034950;27;99538;-80
2023/09/28 05:17:45;;;;;;;29.15;15.55;;;;;;;16.29;69.21;100574.13;5051920;27;98424;-80
2023/09/28 05:20:11;;;;;;;29.83;15.85;;;;;;;16.45;69.01;100588.25;5032028;28;97169;-80
2023/09/28 05:22:37;;;;;;;29.67;15.30;;;;;;;16.28;68.43;100551.19;5051333;27;98539;-80
2023/09/28 05:25:03;;;;;;;23.73;15.82;;;;;;;16.41;68.99;100586.72;5053771;27;98156;-79
2023/09/28 05:27:28;;;;;;;25.50;15.13;;;;;;;16.43;68.19;100576.00;5046271;27;96836;-80
2023/09/28 05:29:54;;;;;;;31.75;16.15;;;;;;;16.27;68.99;100568.03;5051915;27;96984;-80
2023/09/28 05:32:20;;;;;;;27.23;15.70;;;;;;;16.43;68.65;100586.59;5029216;27;98112;-80
2023/09/28 05:34:46;;;;;;;36.28;15.35;;;;;;;16.57;68.18;100597.31;5033920;27;101363;-79
2023/09/28 05:37:12;;;;;;;28.17;15.63;;;;;;;16.72;68.08;100603.56;5043674;27;96932;-81
2023/09/28 05:39:38;;;;;;;31.55;15.77;;;;;;;16.71;68.26;100596.56;5031543;27;97348;-79
2023/09/28 05:42:03;;;;;;;25.20;14.88;;;;;;;16.52;68.36;100580.81;5051131;27;97594;-80
2023/09/28 05:44:30;;;;;;;23.40;16.08;;;;;;;16.92;67.47;100608.66;5032843;27;101578;-79
2023/09/28 05:46:55;;;;;;;32.33;15.70;;;;;;;17.28;66.97;100607.53;5017436;27;97335;-79
2023/09/28 05:49:21;;;;;;;30.55;15.85;;;;;;;17.53;66.08;100616.72;5017997;27;97123;-80
2023/09/28 05:51:47;;;;;;;22.83;15.10;;;;;;;17.77;65.29;100602.00;5025350;27;101022;-80
2023/09/28 05:54:13;;;;;;;25.08;15.63;;;;;;;18.13;64.35;100595.44;5051659;27;97526;-81
2023/09/28 05:56:38;;;;;;;29.88;16.30;;;;;;;18.32;63.65;100606.66;5051332;27;96801;-79
2023/09/28 05:59:04;;;;;;;27.20;15.15;;;;;;;18.69;63.14;100608.81;5051968;27;96818;-80
2023/09/28 06:01:30;;;;;;;22.85;13.85;;;;;;;19.08;62.01;100610.75;5033880;27;100951;-79
2023/09/28 06:03:55;;;;;;;31.35;14.00;;;;;;;19.34;60.93;100605.53;5052034;27;97810;-80
2023/09/28 06:06:41;;;;;;;21.58;14.65;;;;;;;19.48;60.26;100612.59;5033103;27;97307;-78
2023/09/28 06:09:06;;;;;;;30.25;13.77;;;;;;;19.70;59.52;100607.59;5050385;27;97911;-82
2023/09/28 06:11:32;;;;;;;26.38;15.63;;;;;;;20.23;58.29;100613.69;5044353;27;97665;-80
2023/09/28 06:13:57;;;;;;;33.85;14.38;;;;;;;20.41;57.32;100594.69;5048802;27;97439;-80
2023/09/28 06:16:25;;;;;;;21.98;13.40;;;;;;;20.97;56.42;100590.66;5050007;27;97395;-81
2023/09/28 06:18:51;;;;;;;23.23;13.95;;;;;;;21.39;54.43;100579.59;5050393;27;96830;-80
2023/09/28 06:21:17;;;;;;;22.33;13.43;;;;;;;21.79;53.70;100600.63;5047376;27;101099;-79
2023/09/28 06:23:42;;;;;;;21.63;13.90;;;;;;;22.45;52.44;100603.50;5014087;27;100152;-79
2023/09/28 06:26:08;;;;;;;19.08;13.18;;;;;;;23.15;50.61;100600.50;5050356;27;97651;-77
2023/09/28 06:28:33;;;;;;;25.55;12.40;;;;;;;23.46;49.69;100597.97;5024843;28;97011;-81
2023/09/28 06:31:01;;;;;;;22.40;11.25;;;;;;;24.03;48.44;100593.16;5040433;27;101035;-78
2023/09/28 06:33:27;;;;;;;20.80;13.15;;;;;;;24.44;47.34;100594.97;5035711;27;102340;-79
2023/09/28 06:35:53;;;;;;;18.23;12.20;;;;;;;24.97;45.93;100591.19;5050400;27;97382;-80
2023/09/28 06:38:20;;;;;;;24.65;12.18;;;;;;;25.65;44.86;100602.81;5028433;27;97044;-77
2023/09/28 06:40:48;;;;;;;20.95;12.35;;;;;;;26.67;42.71;100583.31;5043744;27;97570;-76
2023/09/28 06:43:15;;;;;;;15.52;11.25;;;;;;;27.28;41.44;100598.81;5050754;27;97333;-79
2023/09/28 06:45:41;;;;;;;20.48;12.43;;;;;;;27.60;39.94;100583.09;5034430;27;97261;-79
2023/09/28 06:48:07;;;;;;;19.10;10.52;;;;;;;28.95;38.25;100588.78;5051842;27;97105;-77
2023/09/28 06:50:35;;;;;;;16.30;11.25;;;;;;;30.41;36.09;100600.63;5034423;27;101357;-80
2023/09/28 06:53:02;;;;;;;22.67;10.00;;;;;;;31.42;34.35;100600.81;5051126;27;97474;-80
2023/09/28 06:55:27;;;;;;;17.27;10.48;;;;;;;31.08;34.17;100591.19;5052338;27;97176;-80
2023/09/28 06:57:53;;;;;;;23.75;11.13;;;;;;;31.68;33.70;100605.81;5044448;27;97066;-80
2023/09/28 07:00:18;;;;;;;21.30;10.77;;;;;;;32.39;32.74;100607.16;5015358;27;100910;-80
2023/09/28 07:02:47;;;;;;;19.88;9.88;;;;;;;32.45;32.37;100606.44;5049013;27;97337;-79
2023/09/28 07:05:16;;;;;;;15.07;8.07;;;;;;;32.70;31.67;100600.72;5032987;27;97456;-79
2023/09/28 07:07:43;;;;;;;20.58;8.32;;;;;;;33.06;30.91;100594.47;5048907;27;96930;-83
2023/09/28 07:10:12;;;;;;;27.30;9.10;;;;;;;33.38;31.43;100609.44;5031601;27;101864;-82
2023/09/28 07:12:37;;;;;;;16.95;15.07;;;;;;;33.37;30.74;100599.59;5022012;28;99146;-80
2023/09/28 07:15:06;;;;;;;20.88;9.15;;;;;;;33.33;30.73;100607.28;5046158;27;98087;-82
2023/09/28 07:17:33;;;;;;;23.80;9.05;;;;;;;34.34;30.27;100595.34;5042578;27;96814;-79
2023/09/28 07:19:59;;;;;;;20.42;12.05;;;;;;;35.10;29.00;100608.91;5044691;27;98038;-83
2023/09/28 07:22:24;;;;;;;15.30;10.65;;;;;;;36.49;27.42;100608.06;5043774;27;97380;-83
2023/09/28 07:24:50;;;;;;;16.90;10.20;;;;;;;37.66;25.58;100608.72;5024142;27;97013;-82
2023/09/28 07:27:16;;;;;;;9.57;7.22;;;;;;;38.73;24.24;100609.31;5048694;27;96922;-81
2023/09/28 07:29:42;;;;;;;16.27;7.80;;;;;;;39.68;23.66;100580.28;5023356;27;97723;-82
2023/09/28 07:32:08;;;;;;;12.75;7.57;;;;;;;39.85;23.29;100591.41;5043926;27;97453;-82
2023/09/28 07:34:34;;;;;;;13.35;8.15;;;;;;;40.34;22.33;100604.91;5027179;27;97597;-80
2023/09/28 07:36:59;;;;;;;14.80;7.30;;;;;;;40.75;22.12;100611.28;5024087;28;97466;-82
2023/09/28 07:39:25;;;;;;;10.55;6.68;;;;;;;41.74;21.33;100586.09;5044655;27;97490;-82
2023/09/28 07:41:51;;;;;;;18.48;6.90;;;;;;;43.01;20.48;100609.03;5045131;27;101267;-81
2023/09/28 07:44:19;;;;;;;12.85;7.03;;;;;;;43.75;19.40;100607.50;5049320;27;96904;-81
2023/09/28 07:46:45;;;;;;;12.57;6.05;;;;;;;44.64;18.53;100605.81;5032245;27;97297;-81
2023/09/28 07:49:12;;;;;;;13.88;5.93;;;;;;;44.84;18.60;100611.41;5026917;27;97883;-82
2023/09/28 07:51:39;;;;;;;8.15;5.55;;;;;;;45.36;18.26;100599.31;5010411;27;101786;-81
2023/09/28 07:54:05;;;;;;;11.57;6.18;;;;;;;45.84;17.72;100597.06;5032753;27;96803;-82
2023/09/28 07:56:31;;;;;;;15.98;5.63;;;;;;;45.87;17.72;100592.06;5039124;27;97942;-82
2023/09/28 07:58:57;;;;;;;10.25;5.10;;;;;;;45.46;17.67;100604.03;5044668;27;97400;-84
2023/09/28 08:01:23;;;;;;;11.18;5.18;;;;;;;45.48;17.25;100614.84;5047054;27;97387;-86
2023/09/28 08:03:49;;;;;;;11.43;5.05;;;;;;;45.20;17.92;100594.06;5047282;27;96732;-86
2023/09/28 08:06:16;;;;;;;11.77;5.40;;;;;;;45.18;17.56;100595.16;5007326;27;96898;-90
2023/09/28 08:08:41;;;;;;;11.05;5.50;;;;;;;45.87;16.76;100586.53;5029862;27;97581;-91
2023/09/28 08:11:07;;;;;;;15.35;13.85;;;;;;;43.74;18.65;100590.09;5026234;27;100155;-89
2023/09/28 08:13:32;;;;;;;16.02;11.75;;;;;;;44.74;18.06;100592.00;5022351;27;97177;-90
2023/09/28 08:15:58;;;;;;;14.32;11.82;;;;;;;44.32;17.71;100598.44;5048947;27;96960;-91
2023/09/28 08:18:25;;;;;;;16.27;13.00;;;;;;;44.23;18.58;100595.38;5049816;27;98312;-91
2023/09/28 08:20:50;;;;;;;9.50;4.95;;;;;;;47.47;16.14;100602.94;5045829;27;97721;-91
2023/09/28 08:23:16;;;;;;;11.88;5.25;;;;;;;47.43;15.69;100592.72;5028859;27;96776;-89
2023/09/28 08:25:41;;;;;;;9.68;4.80;;;;;;;48.21;15.34;100594.44;5030062;28;96887;-87
2023/09/28 08:28:07;;;;;;;13.90;10.13;;;;;;;48.18;15.26;100595.88;5026360;27;97480;-89
2023/09/28 08:30:33;;;;;;;13.20;8.02;;;;;;;45.36;17.10;100596.56;5048252;27;98050;-84
2023/09/28 08:32:59;;;;;;;8.23;4.60;;;;;;;45.58;16.73;100593.50;5020651;28;96837;-90
2023/09/28 08:35:24;;;;;;;12.52;5.10;;;;;;;48.28;15.50;100595.72;5012838;27;97159;-86
2023/09/28 08:37:50;;;;;;;8.48;5.03;;;;;;;49.53;14.53;100597.22;5044993;27;98105;-88
2023/09/28 08:40:16;;;;;;;8.30;5.97;;;;;;;50.75;13.45;100586.72;5045586;27;97372;-88
2023/09/28 08:42:45;;;;;;;9.05;4.65;;;;;;;50.76;13.64;100577.19;5048927;27;97007;-89
2023/09/28 08:45:12;;;;;;;9.55;4.18;;;;;;;52.19;13.24;100584.63;5045907;27;97247;-88
2023/09/28 08:47:47;;;;;;;8.57;4.75;;;;;;;52.51;12.82;100589.00;5011799;27;101596;-88
2023/09/28 08:50:15;;;;;;;17.63;7.00;;;;;;;51.72;13.17;100599.09;5053602;27;97673;-88
2023/09/28 08:52:40;;;;;;;7.03;4.50;;;;;;;50.41;13.19;100590.81;5051938;27;97723;-88
2023/09/28 08:55:07;;;;;;;12.85;5.53;;;;;;;52.26;12.08;100587.81;5043939;27;96947;-88
2023/09/28 08:57:35;;;;;;;7.80;4.82;;;;;;;52.23;12.73;100592.06;5034787;27;102010;-88
2023/09/28 09:00:01;;;;;;;8.25;4.72;;;;;;;51.04;12.94;100595.53;5050764;27;98346;-79
2023/09/28 09:02:27;;;;;;;15.93;4.60;;;;;;;52.21;12.35;100579.56;5051609;27;97318;-84
2023/09/28 09:04:53;;;;;;;7.82;4.57;;;;;;;50.99;12.64;100586.44;5053335;27;97398;-78
2023/09/28 09:07:21;;;;;;;6.10;4.35;;;;;;;51.64;12.69;100585.91;5052335;27;97707;-82
2023/09/28 09:09:47;;;;;;;7.72;5.10;;;;;;;52.39;12.32;100578.44;5029600;27;101340;-82
2023/09/28 09:12:13;;;;;;;9.32;5.03;;;;;;;53.01;12.07;100580.19;5032893;27;97209;-82
2023/09/28 09:14:38;;;;;;;9.32;5.38;;;;;;;53.93;11.04;100576.09;5036916;27;96849;-82
2023/09/28 09:17:04;;;;;;;6.65;5.00;;;;;;;52.69;11.61;100578.69;5030198;28;101401;-82
2023/09/28 09:19:32;;;;;;;10.38;4.93;;;;;;;53.16;11.82;100564.81;5034070;27;101617;-84
2023/09/28 09:22:00;;;;;;;24.85;17.10;;;;;;;54.21;11.07;100571.66;5050273;27;97034;-84
2023/09/28 09:24:25;;;;;;;7.65;5.00;;;;;;;48.64;13.59;100566.59;5047177;27;98048;-81
2023/09/28 09:26:56;;;;;;;7.40;5.18;;;;;;;50.47;12.39;100573.63;5047979;27;97432;-80
2023/09/28 09:29:22;;;;;;;6.88;4.50;;;;;;;51.12;12.01;100552.03;5052961;27;97383;-81
2023/09/28 09:31:49;;;;;;;7.10;4.60;;;;;;;50.28;12.95;100554.25;5031425;27;97482;-79
2023/09/28 09:34:21;;;;;;;13.23;5.23;;;;;;;51.44;12.29;100558.50;5048136;27;98460;-78
2023/09/28 09:36:51;;;;;;;6.35;4.72;;;;;;;50.51;12.37;100560.72;5051813;27;98560;-79
2023/09/28 09:39:25;;;;;;;6.63;4.70;;;;;;;53.04;11.79;100554.28;5054162;27;97580;-80
2023/09/28 09:41:51;;;;;;;5.88;5.00;;;;;;;51.39;11.82;100553.84;5023019;28;97272;-80
2023/09/28 09:44:19;;;;;;;9.10;4.57;;;;;;;50.87;12.40;100557.06;5051108;27;97279;-80
2023/09/28 09:46:49;;;;;;;12.23;5.68;;;;;;;48.97;13.03;100564.72;5050748;27;97854;-80
2023/09/28 09:49:18;;;;;;;11.32;7.18;;;;;;;44.13;15.73;100553.81;5040934;27;101265;-82
2023/09/28 09:51:45;;;;;;;6.53;4.68;;;;;;;45.52;15.84;100564.13;5049192;27;96769;-80
2023/09/28 09:54:14;;;;;;;8.97;5.87;;;;;;;46.20;14.75;100571.22;5030080;27;97285;-88
2023/09/28 09:56:44;;;;;;;11.77;10.57;;;;;;;43.02;16.63;100554.63;5033322;27;100060;-85
2023/09/28 09:59:13;;;;;;;5.65;4.20;;;;;;;40.00;19.26;100552.44;5052426;27;99177;-86
2023/09/28 10:01:40;;;;;;;13.75;6.82;;;;;;;37.97;21.59;100569.50;5022715;27;97440;-88
2023/09/28 10:04:12;;;;;;;6.85;4.07;;;;;;;36.66;22.92;100571.03;5054050;27;97817;-87
2023/09/28 10:06:38;;;;;;;8.18;4.03;;;;;;;35.08;24.82;100567.38;5051608;27;98300;-89
2023/09/28 10:09:04;;;;;;;6.75;4.47;;;;;;;34.12;26.44;100578.25;5013774;27;101424;-90
2023/09/28 10:11:31;;;;;;;7.20;3.90;;;;;;;32.81;27.33;100555.88;5016826;27;97298;-89
2023/09/28 10:13:57;;;;;;;6.80;3.72;;;;;;;32.72;27.80;100559.75;5035764;27;96944;-88
2023/09/28 10:16:24;;;;;;;12.57;6.35;;;;;;;31.75;28.35;100555.22;5035577;27;98604;-86
2023/09/28 10:18:51;;;;;;;11.25;4.25;;;;;;;30.44;29.77;100584.00;5032216;28;101315;-89
2023/09/28 10:21:17;;;;;;;10.45;4.05;;;;;;;30.17;30.42;100562.78;5026499;27;98426;-84
2023/09/28 10:23:43;;;;;;;10.10;4.63;;;;;;;30.11;30.89;100587.84;5045540;27;96929;-86
2023/09/28 10:26:14;;;;;;;7.25;4.10;;;;;;;29.68;31.48;100563.72;5032415;27;101572;-83
2023/09/28 10:29:05;;;;;;;13.13;4.80;;;;;;;29.77;31.30;100578.91;5033157;27;98568;-85
2023/09/28 10:31:32;;;;;;;9.05;4.25;;;;;;;29.44;32.08;100566.38;5045842;27;97556;-84
2023/09/28 10:34:03;;;;;;;15.80;9.07;;;;;;;29.24;32.03;100574.00;5044138;27;97472;-87
2023/09/28 10:36:30;;;;;;;10.95;8.70;;;;;;;29.09;32.42;100563.84;5008247;28;101492;-86
2023/09/28 10:39:15;;;;;;;6.47;3.90;;;;;;;29.06;32.52;100552.50;5012137;27;101471;-85
2023/09/28 10:41:49;;;;;;;12.98;6.47;;;;;;;28.76;33.06;100570.97;5041626;27;97390;-86
2023/09/28 10:44:21;;;;;;;12.82;3.80;;;;;;;28.35;33.25;100560.00;5029826;27;96819;-88
2023/09/28 10:46:51;;;;;;;25.40;18.15;;;;;;;28.64;33.30;100561.50;5025561;27;101761;-88
2023/09/28 10:49:27;;;;;;;6.90;4.03;;;;;;;28.48;33.80;100532.59;5027341;27;101442;-87
2023/09/28 10:51:55;;;;;;;18.77;15.75;;;;;;;28.31;33.46;100549.69;5024015;27;97183;-87
2023/09/28 10:54:21;;;;;;;18.35;13.50;;;;;;;28.29;33.58;100551.69;5012775;28;96867;-86
2023/09/28 10:56:50;;;;;;;15.55;12.88;;;;;;;28.24;34.00;100554.03;5047113;27;97886;-89
2023/09/28 11:02:37;;;;;;;9.50;4.20;;;;;;;27.88;34.29;100565.81;5047298;27;97292;-84
2023/09/28 11:05:07;;;;;;;12.05;4.28;;;;;;;27.69;34.21;100536.31;5048255;27;97346;-83
2023/09/28 11:07:36;;;;;;;6.68;4.30;;;;;;;27.55;34.83;100532.34;5044034;27;98776;-82
2023/09/28 11:10:08;;;;;;;8.32;4.82;;;;;;;27.58;35.25;100540.13;5046923;27;100035;-82
2023/09/28 11:12:58;;;;;;;10.95;5.05;;;;;;;27.80;33.37;100549.56;5006234;27;97353;-83
2023/09/28 11:15:49;;;;;;;10.65;5.95;;;;;;;27.47;34.22;100561.94;5039640;27;97129;-84